sensor_id;sensor_type;location;lat;lon;timestamp;temperature;humidity
5286;DHT22;2665;53.112;7.358;2023-03-01T09:47:00;5.30;1.00
5286;DHT22;2665;53.112;7.358;2023-03-01T09:49:28;5.90;99.90
5286;DHT22;2665;53.112;7.358;2023-03-01T09:54:24;6.80;1.00
5286;DHT22;2665;53.112;7.358;2023-03-01T10:05:05;5.60;99.90
5286;DHT22;2665;53.112;7.358;2023-03-01T10:10:43;5.40;99.90
5286;DHT22;2665;53.112;7.358;2023-03-01T10:13:32;5.40;99.90
5286;DHT22;2665;53.112;7.358;2023-03-01T10:16:24;5.40;99.90
5286;DHT22;2665;53.112;7.358;2023-03-01T10:19:00;5.50;99.90
5286;DHT22;2665;53.112;7.358;2023-03-01T10:21:28;5.60;99.90
5286;DHT22;2665;53.112;7.358;2023-03-01T10:24:07;5.70;99.90
5286;DHT22;2665;53.112;7.358;2023-03-01T10:26:40;5.80;1.00
5286;DHT22;2665;53.112;7.358;2023-03-01T10:29:11;6.00;1.00
5286;DHT22;2665;53.112;7.358;2023-03-01T10:31:49;6.20;1.00
5286;DHT22;2665;53.112;7.358;2023-03-01T10:34:17;6.30;99.90
5286;DHT22;2665;53.112;7.358;2023-03-01T10:36:47;6.40;99.90
5286;DHT22;2665;53.112;7.358;2023-03-01T10:39:24;6.50;1.00
5286;DHT22;2665;53.112;7.358;2023-03-01T10:42:04;6.60;1.00
5286;DHT22;2665;53.112;7.358;2023-03-01T10:44:44;6.70;1.00
5286;DHT22;2665;53.112;7.358;2023-03-01T10:47:22;6.90;99.90
5286;DHT22;2665;53.112;7.358;2023-03-01T10:50:04;7.00;99.90
5286;DHT22;2665;53.112;7.358;2023-03-01T10:52:33;7.20;99.90
5286;DHT22;2665;53.112;7.358;2023-03-01T10:55:23;7.40;99.90
5286;DHT22;2665;53.112;7.358;2023-03-01T10:57:50;7.50;99.90
5286;DHT22;2665;53.112;7.358;2023-03-01T11:00:20;7.60;99.90
5286;DHT22;2665;53.112;7.358;2023-03-01T11:03:11;7.80;99.90
5286;DHT22;2665;53.112;7.358;2023-03-01T11:06:04;7.80;99.90
5286;DHT22;2665;53.112;7.358;2023-03-01T11:08:38;7.90;99.90
5286;DHT22;2665;53.112;7.358;2023-03-01T11:11:24;8.00;99.90
5286;DHT22;2665;53.112;7.358;2023-03-01T11:14:07;8.10;99.90
5286;DHT22;2665;53.112;7.358;2023-03-01T11:16:40;8.10;99.90
5286;DHT22;2665;53.112;7.358;2023-03-01T11:27:30;11.70;99.90
5286;DHT22;2665;53.112;7.358;2023-03-01T11:32:41;14.40;96.20
5286;DHT22;2665;53.112;7.358;2023-03-01T11:35:19;15.30;93.00
5286;DHT22;2665;53.112;7.358;2023-03-01T11:51:14;17.70;66.40
5286;DHT22;2665;53.112;7.358;2023-03-01T11:56:38;17.50;61.40
5286;DHT22;2665;53.112;7.358;2023-03-01T11:59:40;17.70;58.20
5286;DHT22;2665;53.112;7.358;2023-03-01T12:04:59;18.30;57.70
5286;DHT22;2665;53.112;7.358;2023-03-01T12:34:34;19.00;58.90
5286;DHT22;2665;53.112;7.358;2023-03-01T12:37:19;18.80;57.10
5286;DHT22;2665;53.112;7.358;2023-03-01T12:42:57;18.40;54.50
5286;DHT22;2665;53.112;7.358;2023-03-01T12:51:14;17.70;52.40
5286;DHT22;2665;53.112;7.358;2023-03-01T12:53:42;17.50;51.60
5286;DHT22;2665;53.112;7.358;2023-03-01T12:56:12;17.20;51.30
5286;DHT22;2665;53.112;7.358;2023-03-01T13:01:48;17.80;56.60
5286;DHT22;2665;53.112;7.358;2023-03-01T13:04:43;18.30;58.70
5286;DHT22;2665;53.112;7.358;2023-03-01T13:07:29;18.70;61.60
5286;DHT22;2665;53.112;7.358;2023-03-01T13:12:51;18.60;60.10
5286;DHT22;2665;53.112;7.358;2023-03-01T13:15:25;18.20;57.40
5286;DHT22;2665;53.112;7.358;2023-03-01T13:21:01;17.70;55.90
5286;DHT22;2665;53.112;7.358;2023-03-01T13:23:30;18.00;58.40
5286;DHT22;2665;53.112;7.358;2023-03-01T13:31:04;18.20;59.30
5286;DHT22;2665;53.112;7.358;2023-03-01T13:35:57;18.30;62.30
5286;DHT22;2665;53.112;7.358;2023-03-01T13:38:55;18.60;64.30
5286;DHT22;2665;53.112;7.358;2023-03-01T13:41:50;18.80;62.70
5286;DHT22;2665;53.112;7.358;2023-03-01T13:44:37;17.90;59.40
5286;DHT22;2665;53.112;7.358;2023-03-01T13:47:16;17.10;55.50
5286;DHT22;2665;53.112;7.358;2023-03-01T13:49:56;16.90;55.00
5286;DHT22;2665;53.112;7.358;2023-03-01T13:52:44;17.00;57.30
5286;DHT22;2665;53.112;7.358;2023-03-01T13:57:48;17.70;62.20
5286;DHT22;2665;53.112;7.358;2023-03-01T14:00:32;17.90;63.80
5286;DHT22;2665;53.112;7.358;2023-03-01T14:05:29;18.10;64.70
5286;DHT22;2665;53.112;7.358;2023-03-01T14:07:55;18.10;65.80
5286;DHT22;2665;53.112;7.358;2023-03-01T14:10:21;18.00;67.00
5286;DHT22;2665;53.112;7.358;2023-03-01T14:16:04;17.50;62.30
5286;DHT22;2665;53.112;7.358;2023-03-01T14:21:17;17.50;64.20
5286;DHT22;2665;53.112;7.358;2023-03-01T14:23:43;17.70;65.40
5286;DHT22;2665;53.112;7.358;2023-03-01T14:26:09;17.60;64.60
5286;DHT22;2665;53.112;7.358;2023-03-01T14:28:38;17.40;64.20
5286;DHT22;2665;53.112;7.358;2023-03-01T14:31:37;17.10;62.70
5286;DHT22;2665;53.112;7.358;2023-03-01T14:34:04;16.80;61.50
5286;DHT22;2665;53.112;7.358;2023-03-01T14:36:32;16.80;62.90
5286;DHT22;2665;53.112;7.358;2023-03-01T14:38:58;16.70;63.40
5286;DHT22;2665;53.112;7.358;2023-03-01T14:41:32;16.80;63.70
5286;DHT22;2665;53.112;7.358;2023-03-01T14:44:05;16.90;65.90
5286;DHT22;2665;53.112;7.358;2023-03-01T14:46:39;17.00;66.00
5286;DHT22;2665;53.112;7.358;2023-03-01T14:49:18;16.60;64.30
5286;DHT22;2665;53.112;7.358;2023-03-01T14:52:18;16.50;64.50
5286;DHT22;2665;53.112;7.358;2023-03-01T14:54:48;16.40;64.60
5286;DHT22;2665;53.112;7.358;2023-03-01T14:57:26;16.60;65.80
5286;DHT22;2665;53.112;7.358;2023-03-01T14:59:53;16.60;68.50
5286;DHT22;2665;53.112;7.358;2023-03-01T15:02:23;16.80;69.60
5286;DHT22;2665;53.112;7.358;2023-03-01T15:04:57;16.50;66.80
5286;DHT22;2665;53.112;7.358;2023-03-01T15:07:29;16.30;66.10
5286;DHT22;2665;53.112;7.358;2023-03-01T15:09:57;16.30;67.20
5286;DHT22;2665;53.112;7.358;2023-03-01T15:14:56;16.50;68.40
5286;DHT22;2665;53.112;7.358;2023-03-01T15:17:32;16.20;68.40
5286;DHT22;2665;53.112;7.358;2023-03-01T15:19:58;15.90;65.20
5286;DHT22;2665;53.112;7.358;2023-03-01T15:22:26;15.90;66.20
5286;DHT22;2665;53.112;7.358;2023-03-01T15:24:52;15.90;66.50
5286;DHT22;2665;53.112;7.358;2023-03-01T15:27:21;15.80;68.20
5286;DHT22;2665;53.112;7.358;2023-03-01T15:29:52;15.50;65.60
5286;DHT22;2665;53.112;7.358;2023-03-01T15:32:33;15.30;65.80
5286;DHT22;2665;53.112;7.358;2023-03-01T15:35:00;15.40;66.70
5286;DHT22;2665;53.112;7.358;2023-03-01T15:37:47;15.50;67.40
5286;DHT22;2665;53.112;7.358;2023-03-01T15:40:25;15.60;68.10
5286;DHT22;2665;53.112;7.358;2023-03-01T15:43:02;15.40;68.40
5286;DHT22;2665;53.112;7.358;2023-03-01T15:45:29;15.30;67.60
5286;DHT22;2665;53.112;7.358;2023-03-01T15:48:01;14.90;65.70
5286;DHT22;2665;53.112;7.358;2023-03-01T15:50:35;14.60;65.20
5286;DHT22;2665;53.112;7.358;2023-03-01T15:53:12;14.50;66.60
5286;DHT22;2665;53.112;7.358;2023-03-01T15:55:38;14.40;65.50
5286;DHT22;2665;53.112;7.358;2023-03-01T15:58:18;14.20;66.10
5286;DHT22;2665;53.112;7.358;2023-03-01T16:00:45;13.90;64.90
5286;DHT22;2665;53.112;7.358;2023-03-01T16:03:12;13.60;63.80
5286;DHT22;2665;53.112;7.358;2023-03-01T16:05:38;13.30;63.30
5286;DHT22;2665;53.112;7.358;2023-03-01T16:08:05;13.00;63.10
5286;DHT22;2665;53.112;7.358;2023-03-01T16:10:35;12.50;61.70
5286;DHT22;2665;53.112;7.358;2023-03-01T16:13:01;12.30;61.90
5286;DHT22;2665;53.112;7.358;2023-03-01T16:15:32;12.20;64.00
5286;DHT22;2665;53.112;7.358;2023-03-01T16:17:59;12.10;64.00
5286;DHT22;2665;53.112;7.358;2023-03-01T16:20:25;11.90;65.40
5286;DHT22;2665;53.112;7.358;2023-03-01T16:22:51;11.60;64.00
5286;DHT22;2665;53.112;7.358;2023-03-01T16:25:18;11.40;65.30
5286;DHT22;2665;53.112;7.358;2023-03-01T16:27:50;11.20;65.50
5286;DHT22;2665;53.112;7.358;2023-03-01T16:30:18;11.00;67.20
5286;DHT22;2665;53.112;7.358;2023-03-01T16:32:45;10.90;66.60
5286;DHT22;2665;53.112;7.358;2023-03-01T16:35:14;10.60;66.80
5286;DHT22;2665;53.112;7.358;2023-03-01T16:37:41;10.40;67.90
5286;DHT22;2665;53.112;7.358;2023-03-01T16:40:16;10.00;69.50
5286;DHT22;2665;53.112;7.358;2023-03-01T16:42:42;9.40;70.90
5286;DHT22;2665;53.112;7.358;2023-03-01T16:45:08;8.90;71.70
5286;DHT22;2665;53.112;7.358;2023-03-01T16:47:34;8.50;74.30
5286;DHT22;2665;53.112;7.358;2023-03-01T16:50:00;8.20;77.60
5286;DHT22;2665;53.112;7.358;2023-03-01T16:52:25;7.90;81.00
5286;DHT22;2665;53.112;7.358;2023-03-01T16:54:51;7.70;83.70
5286;DHT22;2665;53.112;7.358;2023-03-01T16:57:17;7.50;85.50
5286;DHT22;2665;53.112;7.358;2023-03-01T16:59:43;7.40;89.10
5286;DHT22;2665;53.112;7.358;2023-03-01T17:02:10;7.20;91.30
5286;DHT22;2665;53.112;7.358;2023-03-01T17:04:38;7.00;93.00
5286;DHT22;2665;53.112;7.358;2023-03-01T17:07:04;6.80;95.50
5286;DHT22;2665;53.112;7.358;2023-03-01T17:09:29;6.50;96.70
5286;DHT22;2665;53.112;7.358;2023-03-01T17:11:55;6.30;98.80
5286;DHT22;2665;53.112;7.358;2023-03-01T17:14:21;6.10;99.90
5286;DHT22;2665;53.112;7.358;2023-03-01T17:16:46;6.00;99.90
5286;DHT22;2665;53.112;7.358;2023-03-01T17:19:12;5.90;99.90
5286;DHT22;2665;53.112;7.358;2023-03-01T17:21:43;5.80;99.90
5286;DHT22;2665;53.112;7.358;2023-03-01T17:24:09;5.70;99.90
5286;DHT22;2665;53.112;7.358;2023-03-01T17:26:35;5.60;99.90
5286;DHT22;2665;53.112;7.358;2023-03-01T17:29:00;5.50;99.90
5286;DHT22;2665;53.112;7.358;2023-03-01T17:31:26;5.40;99.90
5286;DHT22;2665;53.112;7.358;2023-03-01T17:33:52;5.40;99.90
5286;DHT22;2665;53.112;7.358;2023-03-01T17:36:18;5.30;99.90
5286;DHT22;2665;53.112;7.358;2023-03-01T17:38:43;5.20;99.90
5286;DHT22;2665;53.112;7.358;2023-03-01T17:41:10;5.20;99.90
5286;DHT22;2665;53.112;7.358;2023-03-01T17:43:37;5.10;99.90
5286;DHT22;2665;53.112;7.358;2023-03-01T17:46:03;5.00;99.90
5286;DHT22;2665;53.112;7.358;2023-03-01T17:48:29;4.90;99.90
5286;DHT22;2665;53.112;7.358;2023-03-01T17:50:54;4.80;99.90
5286;DHT22;2665;53.112;7.358;2023-03-01T17:53:20;4.80;99.90
5286;DHT22;2665;53.112;7.358;2023-03-01T17:55:47;4.70;99.90
5286;DHT22;2665;53.112;7.358;2023-03-01T17:58:18;4.60;99.90
5286;DHT22;2665;53.112;7.358;2023-03-01T18:00:48;4.60;99.90
5286;DHT22;2665;53.112;7.358;2023-03-01T18:03:14;4.50;99.90
5286;DHT22;2665;53.112;7.358;2023-03-01T18:05:39;4.50;99.90
5286;DHT22;2665;53.112;7.358;2023-03-01T18:08:05;4.40;99.90
5286;DHT22;2665;53.112;7.358;2023-03-01T18:10:33;4.30;1.00
5286;DHT22;2665;53.112;7.358;2023-03-01T18:13:01;4.30;1.00
5286;DHT22;2665;53.112;7.358;2023-03-01T18:15:27;4.20;1.00
5286;DHT22;2665;53.112;7.358;2023-03-01T18:17:53;4.10;37.30
5286;DHT22;2665;53.112;7.358;2023-03-01T18:20:19;4.10;99.90
5286;DHT22;2665;53.112;7.358;2023-03-01T18:22:45;4.00;99.90
5286;DHT22;2665;53.112;7.358;2023-03-01T18:25:11;3.90;99.90
5286;DHT22;2665;53.112;7.358;2023-03-01T18:27:37;3.90;1.00
5286;DHT22;2665;53.112;7.358;2023-03-01T18:30:06;3.80;11.40
5286;DHT22;2665;53.112;7.358;2023-03-01T18:32:32;3.70;11.20
5286;DHT22;2665;53.112;7.358;2023-03-01T18:34:58;3.70;99.90
5286;DHT22;2665;53.112;7.358;2023-03-01T18:37:23;3.60;99.90
5286;DHT22;2665;53.112;7.358;2023-03-01T18:39:51;3.50;99.90
5286;DHT22;2665;53.112;7.358;2023-03-01T18:42:17;3.60;1.00
5286;DHT22;2665;53.112;7.358;2023-03-01T18:44:45;3.60;1.00
5286;DHT22;2665;53.112;7.358;2023-03-01T18:47:11;3.70;99.90
5286;DHT22;2665;53.112;7.358;2023-03-01T18:49:36;3.70;99.90
5286;DHT22;2665;53.112;7.358;2023-03-01T18:52:02;3.80;99.90
5286;DHT22;2665;53.112;7.358;2023-03-01T18:54:28;3.80;99.90
5286;DHT22;2665;53.112;7.358;2023-03-01T18:56:54;3.80;1.00
5286;DHT22;2665;53.112;7.358;2023-03-01T18:59:20;3.90;1.00
5286;DHT22;2665;53.112;7.358;2023-03-01T19:01:45;3.90;99.90
5286;DHT22;2665;53.112;7.358;2023-03-01T19:04:11;3.90;99.90
5286;DHT22;2665;53.112;7.358;2023-03-01T19:06:37;4.00;1.00
5286;DHT22;2665;53.112;7.358;2023-03-01T19:09:04;4.00;1.00
5286;DHT22;2665;53.112;7.358;2023-03-01T19:11:30;4.00;1.00
5286;DHT22;2665;53.112;7.358;2023-03-01T19:13:58;4.10;1.00
5286;DHT22;2665;53.112;7.358;2023-03-01T19:16:26;4.10;1.00
5286;DHT22;2665;53.112;7.358;2023-03-01T19:18:55;4.10;1.00
5286;DHT22;2665;53.112;7.358;2023-03-01T19:21:24;4.10;1.00
5286;DHT22;2665;53.112;7.358;2023-03-01T19:23:50;4.20;99.90
5286;DHT22;2665;53.112;7.358;2023-03-01T19:26:18;4.20;99.90
5286;DHT22;2665;53.112;7.358;2023-03-01T19:28:45;4.20;99.90
5286;DHT22;2665;53.112;7.358;2023-03-01T19:31:14;4.20;99.90
5286;DHT22;2665;53.112;7.358;2023-03-01T19:33:40;4.10;1.00
5286;DHT22;2665;53.112;7.358;2023-03-01T19:36:07;4.10;1.00
5286;DHT22;2665;53.112;7.358;2023-03-01T19:38:34;4.10;1.00
5286;DHT22;2665;53.112;7.358;2023-03-01T19:41:05;4.10;99.90
5286;DHT22;2665;53.112;7.358;2023-03-01T19:43:31;4.10;99.90
5286;DHT22;2665;53.112;7.358;2023-03-01T19:45:56;4.10;99.90
5286;DHT22;2665;53.112;7.358;2023-03-01T19:48:22;4.10;99.90
5286;DHT22;2665;53.112;7.358;2023-03-01T19:50:49;4.10;99.90
5286;DHT22;2665;53.112;7.358;2023-03-01T19:53:16;4.20;1.00
5286;DHT22;2665;53.112;7.358;2023-03-01T19:55:42;4.20;1.00
5286;DHT22;2665;53.112;7.358;2023-03-01T19:58:07;4.10;1.00
5286;DHT22;2665;53.112;7.358;2023-03-01T20:00:35;4.10;1.00
5286;DHT22;2665;53.112;7.358;2023-03-01T20:03:01;4.10;99.90
5286;DHT22;2665;53.112;7.358;2023-03-01T20:05:27;4.00;99.90
5286;DHT22;2665;53.112;7.358;2023-03-01T20:07:55;4.00;1.00
5286;DHT22;2665;53.112;7.358;2023-03-01T20:10:22;4.00;1.20
5286;DHT22;2665;53.112;7.358;2023-03-01T20:12:51;4.00;64.70
5286;DHT22;2665;53.112;7.358;2023-03-01T20:15:17;4.00;1.00
5286;DHT22;2665;53.112;7.358;2023-03-01T20:17:43;4.00;99.90
5286;DHT22;2665;53.112;7.358;2023-03-01T20:20:09;3.90;1.00
5286;DHT22;2665;53.112;7.358;2023-03-01T20:22:35;3.90;62.80
5286;DHT22;2665;53.112;7.358;2023-03-01T20:25:00;3.90;99.90
5286;DHT22;2665;53.112;7.358;2023-03-01T20:27:26;3.80;99.90
5286;DHT22;2665;53.112;7.358;2023-03-01T20:29:52;3.80;1.00
5286;DHT22;2665;53.112;7.358;2023-03-01T20:32:17;3.80;1.00
5286;DHT22;2665;53.112;7.358;2023-03-01T20:34:43;3.80;1.00
5286;DHT22;2665;53.112;7.358;2023-03-01T20:37:08;3.70;84.20
5286;DHT22;2665;53.112;7.358;2023-03-01T20:39:34;3.70;99.90
5286;DHT22;2665;53.112;7.358;2023-03-01T20:42:00;3.70;99.90
5286;DHT22;2665;53.112;7.358;2023-03-01T20:44:25;3.70;99.90
5286;DHT22;2665;53.112;7.358;2023-03-01T20:46:51;3.70;99.90
5286;DHT22;2665;53.112;7.358;2023-03-01T20:49:16;3.70;99.90
5286;DHT22;2665;53.112;7.358;2023-03-01T20:51:42;3.70;1.00
5286;DHT22;2665;53.112;7.358;2023-03-01T20:54:08;3.70;1.00
5286;DHT22;2665;53.112;7.358;2023-03-01T20:56:35;3.60;1.00
5286;DHT22;2665;53.112;7.358;2023-03-01T20:59:05;3.60;1.00
5286;DHT22;2665;53.112;7.358;2023-03-01T21:01:33;3.60;1.00
5286;DHT22;2665;53.112;7.358;2023-03-01T21:03:59;3.50;99.90
5286;DHT22;2665;53.112;7.358;2023-03-01T21:06:25;3.50;1.00
5286;DHT22;2665;53.112;7.358;2023-03-01T21:08:51;3.50;1.00
5286;DHT22;2665;53.112;7.358;2023-03-01T21:11:16;3.50;99.90
5286;DHT22;2665;53.112;7.358;2023-03-01T21:13:43;3.50;99.90
5286;DHT22;2665;53.112;7.358;2023-03-01T21:16:11;3.50;99.90
5286;DHT22;2665;53.112;7.358;2023-03-01T21:18:39;3.60;99.90
5286;DHT22;2665;53.112;7.358;2023-03-01T21:21:08;3.50;90.20
5286;DHT22;2665;53.112;7.358;2023-03-01T21:23:35;3.50;1.00
5286;DHT22;2665;53.112;7.358;2023-03-01T21:26:05;3.50;99.90
5286;DHT22;2665;53.112;7.358;2023-03-01T21:28:31;3.50;99.30
5286;DHT22;2665;53.112;7.358;2023-03-01T21:31:08;3.40;1.00
5286;DHT22;2665;53.112;7.358;2023-03-01T21:33:36;3.30;1.00
5286;DHT22;2665;53.112;7.358;2023-03-01T21:36:04;3.20;1.00
5286;DHT22;2665;53.112;7.358;2023-03-01T21:38:35;3.10;1.00
5286;DHT22;2665;53.112;7.358;2023-03-01T21:41:15;3.10;99.90
5286;DHT22;2665;53.112;7.358;2023-03-01T21:43:42;3.20;69.40
5286;DHT22;2665;53.112;7.358;2023-03-01T21:46:11;3.10;1.00
5286;DHT22;2665;53.112;7.358;2023-03-01T21:48:39;3.10;1.00
5286;DHT22;2665;53.112;7.358;2023-03-01T21:51:05;3.20;1.00
5286;DHT22;2665;53.112;7.358;2023-03-01T21:53:32;3.20;99.90
5286;DHT22;2665;53.112;7.358;2023-03-01T21:55:59;3.20;99.90
5286;DHT22;2665;53.112;7.358;2023-03-01T21:58:26;3.20;99.90
5286;DHT22;2665;53.112;7.358;2023-03-01T22:00:53;3.20;13.30
5286;DHT22;2665;53.112;7.358;2023-03-01T22:03:23;3.20;1.00
5286;DHT22;2665;53.112;7.358;2023-03-01T22:06:00;3.20;1.00
5286;DHT22;2665;53.112;7.358;2023-03-01T22:08:27;3.20;1.00
5286;DHT22;2665;53.112;7.358;2023-03-01T22:10:53;3.30;99.90
5286;DHT22;2665;53.112;7.358;2023-03-01T22:13:19;3.10;99.90
5286;DHT22;2665;53.112;7.358;2023-03-01T22:15:45;3.20;99.90
5286;DHT22;2665;53.112;7.358;2023-03-01T22:18:12;3.10;1.00
5286;DHT22;2665;53.112;7.358;2023-03-01T22:20:39;3.20;99.90
5286;DHT22;2665;53.112;7.358;2023-03-01T22:23:06;3.20;99.90
5286;DHT22;2665;53.112;7.358;2023-03-01T22:25:31;3.20;99.90
5286;DHT22;2665;53.112;7.358;2023-03-01T22:27:57;3.20;99.90
5286;DHT22;2665;53.112;7.358;2023-03-01T22:30:23;3.20;1.00
5286;DHT22;2665;53.112;7.358;2023-03-01T22:32:49;3.20;1.00
5286;DHT22;2665;53.112;7.358;2023-03-01T22:35:14;3.20;99.90
5286;DHT22;2665;53.112;7.358;2023-03-01T22:37:40;3.30;99.90
5286;DHT22;2665;53.112;7.358;2023-03-01T22:40:06;3.20;1.00
5286;DHT22;2665;53.112;7.358;2023-03-01T22:42:32;3.20;1.00
5286;DHT22;2665;53.112;7.358;2023-03-01T22:44:58;3.30;1.00
5286;DHT22;2665;53.112;7.358;2023-03-01T22:47:24;3.10;99.90
5286;DHT22;2665;53.112;7.358;2023-03-01T22:49:53;3.00;69.80
5286;DHT22;2665;53.112;7.358;2023-03-01T22:52:19;2.90;99.90
5286;DHT22;2665;53.112;7.358;2023-03-01T22:54:45;2.80;1.00
5286;DHT22;2665;53.112;7.358;2023-03-01T22:57:10;2.80;1.00
5286;DHT22;2665;53.112;7.358;2023-03-01T22:59:36;2.80;1.00
5286;DHT22;2665;53.112;7.358;2023-03-01T23:02:02;2.70;99.90
5286;DHT22;2665;53.112;7.358;2023-03-01T23:04:27;2.70;99.90
5286;DHT22;2665;53.112;7.358;2023-03-01T23:06:53;2.70;1.00
5286;DHT22;2665;53.112;7.358;2023-03-01T23:09:27;2.70;1.00
5286;DHT22;2665;53.112;7.358;2023-03-01T23:11:55;2.70;1.00
5286;DHT22;2665;53.112;7.358;2023-03-01T23:14:22;2.60;1.00
5286;DHT22;2665;53.112;7.358;2023-03-01T23:16:48;2.60;1.00
5286;DHT22;2665;53.112;7.358;2023-03-01T23:19:14;2.60;1.00
5286;DHT22;2665;53.112;7.358;2023-03-01T23:21:41;2.60;99.90
5286;DHT22;2665;53.112;7.358;2023-03-01T23:24:18;2.60;99.90
5286;DHT22;2665;53.112;7.358;2023-03-01T23:26:43;2.60;99.90
5286;DHT22;2665;53.112;7.358;2023-03-01T23:29:10;2.50;1.00
5286;DHT22;2665;53.112;7.358;2023-03-01T23:31:36;2.50;99.90
5286;DHT22;2665;53.112;7.358;2023-03-01T23:34:02;2.60;99.90
5286;DHT22;2665;53.112;7.358;2023-03-01T23:36:31;2.50;1.00
5286;DHT22;2665;53.112;7.358;2023-03-01T23:39:02;2.50;1.00
5286;DHT22;2665;53.112;7.358;2023-03-01T23:41:30;2.50;1.00
5286;DHT22;2665;53.112;7.358;2023-03-01T23:43:58;2.50;1.00
5286;DHT22;2665;53.112;7.358;2023-03-01T23:46:26;2.40;1.00
5286;DHT22;2665;53.112;7.358;2023-03-01T23:48:54;2.40;1.00
5286;DHT22;2665;53.112;7.358;2023-03-01T23:51:20;2.40;99.90
5286;DHT22;2665;53.112;7.358;2023-03-01T23:53:48;2.30;99.90
5286;DHT22;2665;53.112;7.358;2023-03-01T23:58:54;2.30;99.90
